createdAt,value
2023-02-05T00:00:52.135Z,100207.63
2023-02-05T00:03:18.921Z,100293.47
2023-02-05T00:05:46.752Z,100438.00
2023-02-05T00:08:16.480Z,100443.47
2023-02-05T00:10:43.303Z,100391.09
2023-02-05T00:13:12.538Z,100429.75
2023-02-05T00:15:42.766Z,99808.31
2023-02-05T00:18:11.798Z,99919.84
2023-02-05T00:20:38.644Z,100435.94
2023-02-05T00:23:05.754Z,100375.94
2023-02-05T00:25:33.702Z,100261.28
2023-02-05T00:28:05.871Z,100432.59
2023-02-05T00:30:33.711Z,100240.94
2023-02-05T00:33:01.190Z,100441.56
2023-02-05T00:35:29.027Z,100390.88
2023-02-05T00:37:56.484Z,100422.47
2023-02-05T00:40:24.722Z,100291.00
2023-02-05T00:42:52.214Z,100365.72
2023-02-05T00:45:18.951Z,100355.50
2023-02-05T00:47:45.791Z,100279.69
2023-02-05T00:50:12.574Z,100387.50
2023-02-05T00:52:39.330Z,100345.31
2023-02-05T00:55:06.695Z,100196.22
2023-02-05T00:57:33.528Z,100035.59
2023-02-05T01:00:01.491Z,100287.53
2023-02-05T01:02:28.424Z,100398.16
2023-02-05T01:04:59.019Z,100308.66
2023-02-05T01:07:26.241Z,100392.00
2023-02-05T01:09:55.256Z,100382.50
2023-02-05T01:12:23.209Z,100332.59
2023-02-05T01:14:50.664Z,100276.63
2023-02-05T01:17:22.914Z,100317.66
2023-02-05T01:19:50.694Z,100308.31
2023-02-05T01:22:18.904Z,100338.34
2023-02-05T01:24:45.722Z,100289.63
2023-02-05T01:27:12.699Z,100338.94
2023-02-05T01:29:40.809Z,100340.59
2023-02-05T01:32:07.886Z,100270.91
2023-02-05T01:34:34.708Z,100331.78
2023-02-05T01:37:01.728Z,100289.38
2023-02-05T01:39:34.797Z,100333.22
2023-02-05T01:42:03.617Z,100333.41
2023-02-05T01:44:31.424Z,100340.44
2023-02-05T01:46:58.946Z,100249.50
2023-02-05T01:49:56.665Z,100332.91
2023-02-05T01:52:26.538Z,100334.75
2023-02-05T01:54:53.585Z,100246.91
2023-02-05T01:57:24.749Z,100278.91
2023-02-05T01:59:54.181Z,100246.91
2023-02-05T02:02:27.596Z,100323.38
2023-02-05T02:05:03.005Z,100314.69
2023-02-05T02:07:32.103Z,100267.34
2023-02-05T02:10:00.859Z,100276.63
2023-02-05T02:12:32.442Z,100227.06
2023-02-05T02:15:06.729Z,100301.75
2023-02-05T02:17:37.432Z,100166.94
2023-02-05T02:20:07.428Z,100121.66
2023-02-05T02:23:06.196Z,100220.22
2023-02-05T02:25:42.155Z,100284.78
2023-02-05T02:28:26.456Z,100285.75
2023-02-05T02:31:04.226Z,100282.47
2023-02-05T02:33:49.832Z,100248.22
2023-02-05T02:36:33.703Z,100290.47
2023-02-05T02:39:08.596Z,100277.69
2023-02-05T02:41:52.163Z,100276.78
2023-02-05T02:44:32.521Z,100290.56
2023-02-05T02:47:03.943Z,100284.31
2023-02-05T02:49:36.620Z,99857.72
2023-02-05T02:52:06.892Z,100251.75
2023-02-05T02:54:36.312Z,100230.06
2023-02-05T02:57:07.068Z,100209.69
2023-02-05T02:59:37.818Z,100248.63
2023-02-05T03:02:07.413Z,100149.47
2023-02-05T03:04:39.939Z,100168.84
2023-02-05T03:07:17.691Z,100198.13
2023-02-05T03:10:02.753Z,100167.47
2023-02-05T03:12:29.965Z,100185.50
2023-02-05T03:14:57.274Z,100202.06
2023-02-05T03:17:25.494Z,100191.75
2023-02-05T03:20:01.144Z,100237.31
2023-02-05T03:22:27.958Z,100168.31
2023-02-05T03:24:54.603Z,100188.50
2023-02-05T03:27:23.150Z,100211.44
2023-02-05T03:29:50.866Z,100168.41
2023-02-05T03:32:38.576Z,100151.66
2023-02-05T03:35:56.388Z,100234.28
2023-02-05T03:38:43.803Z,100128.56
2023-02-05T03:41:38.259Z,100223.44
2023-02-05T03:44:13.010Z,100156.41
2023-02-05T03:46:53.104Z,100027.09
2023-02-05T03:49:30.406Z,100161.13
2023-02-05T03:52:10.721Z,100190.91
2023-02-05T03:55:01.002Z,100160.31
2023-02-05T03:57:49.383Z,100130.06
2023-02-05T04:00:17.271Z,100092.50
2023-02-05T04:02:46.425Z,100176.03
2023-02-05T04:05:19.112Z,100236.69
2023-02-05T04:07:46.441Z,100141.66
2023-02-05T04:10:13.245Z,100064.38
2023-02-05T04:12:40.867Z,100159.50
2023-02-05T04:15:08.167Z,100168.88
2023-02-05T04:17:40.317Z,100085.38
2023-02-05T04:20:08.497Z,100161.78
2023-02-05T04:22:35.290Z,100118.09
2023-02-05T04:25:02.313Z,100174.41
2023-02-05T04:27:29.414Z,100155.84
2023-02-05T04:29:58.792Z,99930.31
2023-02-05T04:32:26.407Z,100235.44
2023-02-05T04:34:53.404Z,100081.53
2023-02-05T04:37:20.240Z,100206.81
2023-02-05T04:39:47.532Z,100211.78
2023-02-05T04:42:14.193Z,100234.34
2023-02-05T04:44:40.901Z,100124.72
2023-02-05T04:47:07.581Z,100208.78
2023-02-05T04:49:34.933Z,99815.06
2023-02-05T04:52:01.558Z,100230.00
2023-02-05T04:54:28.220Z,100064.31
2023-02-05T04:56:54.939Z,100131.66
2023-02-05T04:59:21.567Z,100017.19
2023-02-05T05:01:48.291Z,100159.53
2023-02-05T05:04:15.100Z,99971.03
2023-02-05T05:06:41.840Z,100128.03
2023-02-05T05:09:08.722Z,99957.88
2023-02-05T05:11:35.408Z,100166.59
2023-02-05T05:14:02.096Z,100176.94
2023-02-05T05:16:30.457Z,100111.66
2023-02-05T05:22:13.560Z,100203.91
2023-02-05T05:28:24.132Z,100211.25
2023-02-05T05:31:52.302Z,100201.47
2023-02-05T05:35:06.444Z,100203.09
2023-02-05T05:37:54.245Z,100113.06
2023-02-05T05:40:56.142Z,100197.59
2023-02-05T05:44:28.997Z,100205.16
2023-02-05T05:47:55.265Z,100104.72
2023-02-05T05:58:19.235Z,100194.53
2023-02-05T06:01:23.686Z,100147.03
2023-02-05T06:07:03.542Z,100206.09
2023-02-05T06:10:05.034Z,100202.66
2023-02-05T06:13:23.738Z,100125.88
2023-02-05T06:18:55.374Z,100188.84
2023-02-05T06:21:39.481Z,100193.06
2023-02-05T06:24:11.445Z,99734.44
2023-02-05T06:29:39.316Z,100130.84
2023-02-05T06:32:06.271Z,100079.09
2023-02-05T06:34:32.872Z,100143.72
2023-02-05T06:36:59.663Z,100192.09
2023-02-05T06:39:26.528Z,100131.16
2023-02-05T06:41:53.261Z,100136.22
2023-02-05T06:44:20.049Z,100100.69
2023-02-05T06:46:46.998Z,100060.47
2023-02-05T06:49:13.689Z,100064.47
2023-02-05T06:51:40.560Z,99849.13
2023-02-05T06:54:07.287Z,99664.69
2023-02-05T06:56:34.109Z,100082.81
2023-02-05T06:59:00.720Z,100054.13
2023-02-05T07:01:27.652Z,100100.50
2023-02-05T07:03:54.275Z,99988.59
2023-02-05T07:06:20.920Z,100068.31
2023-02-05T07:08:47.616Z,100107.94
2023-02-05T07:11:14.380Z,100094.28
2023-02-05T07:13:41.200Z,99975.44
2023-02-05T07:16:08.244Z,100044.97
2023-02-05T07:18:35.216Z,100024.03
2023-02-05T07:21:06.140Z,100142.81
2023-02-05T07:23:33.288Z,100163.59
2023-02-05T07:26:07.160Z,100105.97
2023-02-05T07:28:33.877Z,100008.09
2023-02-05T07:31:11.877Z,100138.91
2023-02-05T07:33:38.631Z,100149.88
2023-02-05T07:36:07.550Z,100155.88
2023-02-05T07:38:34.791Z,100146.16
2023-02-05T07:41:10.096Z,99974.44
2023-02-05T07:43:37.086Z,100097.94
2023-02-05T07:46:06.241Z,100046.16
2023-02-05T07:48:33.432Z,100135.53
2023-02-05T07:51:01.178Z,100138.53
2023-02-05T07:53:29.794Z,100139.16
2023-02-05T07:55:56.603Z,99933.84
2023-02-05T07:58:56.070Z,100038.25
2023-02-05T08:01:44.322Z,99696.16
2023-02-05T08:08:04.970Z,99970.16
2023-02-05T08:14:09.704Z,100093.22
2023-02-05T08:16:36.686Z,99970.41
2023-02-05T08:19:03.465Z,100094.31
2023-02-05T08:21:30.366Z,100042.03
2023-02-05T08:23:57.333Z,100096.25
2023-02-05T08:26:24.371Z,99989.81
2023-02-05T08:28:55.702Z,100016.00
2023-02-05T08:31:45.182Z,100082.97
2023-02-05T08:34:24.592Z,100091.06
2023-02-05T08:36:52.678Z,100018.78
2023-02-05T08:39:19.269Z,99909.44
2023-02-05T08:41:45.993Z,100036.59
2023-02-05T08:44:13.537Z,100083.66
2023-02-05T08:46:49.807Z,100070.25
2023-02-05T08:49:17.945Z,100075.03
2023-02-05T08:51:46.568Z,100074.81
2023-02-05T08:54:15.335Z,100071.91
2023-02-05T08:56:54.956Z,99992.72
2023-02-05T08:59:27.788Z,100035.28
2023-02-05T09:01:55.850Z,99992.06
2023-02-05T09:04:24.084Z,99991.03
2023-02-05T09:06:51.357Z,100080.00
2023-02-05T09:09:18.437Z,99452.03
2023-02-05T09:11:46.769Z,100064.06
2023-02-05T09:14:14.596Z,100066.13
2023-02-05T09:16:41.812Z,100003.03
2023-02-05T09:19:08.451Z,100019.34
2023-02-05T09:21:35.327Z,100012.06
2023-02-05T09:24:02.366Z,99948.72
2023-02-05T09:26:29.606Z,100004.22
2023-02-05T09:28:57.798Z,99998.25
2023-02-05T09:31:25.671Z,100077.75
2023-02-05T09:37:19.789Z,100074.50
2023-02-05T09:43:01.810Z,100061.41
2023-02-05T09:45:35.640Z,100063.81
2023-02-05T09:48:23.584Z,100058.94
2023-02-05T09:50:50.762Z,100057.25
2023-02-05T09:53:21.341Z,100060.81
2023-02-05T09:55:49.536Z,100048.28
2023-02-05T09:58:28.632Z,100042.56
2023-02-05T10:01:03.923Z,99967.34
2023-02-05T10:03:48.321Z,100027.97
2023-02-05T10:06:37.212Z,100043.22
2023-02-05T10:09:16.380Z,100048.09
2023-02-05T10:11:57.184Z,100044.63
2023-02-05T10:14:49.148Z,100025.97
2023-02-05T10:17:26.901Z,100042.72
2023-02-05T10:20:25.946Z,100032.19
2023-02-05T10:23:07.779Z,100037.09
2023-02-05T10:25:38.569Z,100034.94
2023-02-05T10:28:27.323Z,99953.53
2023-02-05T10:31:23.253Z,100020.22
2023-02-05T10:33:53.356Z,100020.53
2023-02-05T10:36:25.443Z,99973.13
2023-02-05T10:38:56.389Z,100022.59
2023-02-05T10:41:38.268Z,100005.59
2023-02-05T10:44:23.379Z,100023.13
2023-02-05T10:46:53.643Z,100012.72
2023-02-05T10:49:29.215Z,100014.13
2023-02-05T10:51:56.344Z,100009.06
2023-02-05T10:54:31.228Z,100011.50
2023-02-05T10:56:58.574Z,100014.56
2023-02-05T10:59:35.861Z,99951.34
2023-02-05T11:02:06.202Z,100003.13
2023-02-05T11:04:35.587Z,100006.59
2023-02-05T11:07:02.697Z,99998.44
2023-02-05T11:09:31.938Z,100005.06
2023-02-05T11:12:02.446Z,99998.81
2023-02-05T11:14:40.566Z,99917.84
2023-02-05T11:17:24.864Z,100004.38
2023-02-05T11:20:08.235Z,99986.31
2023-02-05T11:22:37.678Z,100000.47
2023-02-05T11:25:13.537Z,99994.19
2023-02-05T11:27:40.370Z,99996.53
2023-02-05T11:30:47.639Z,99945.84
2023-02-05T11:33:21.456Z,100000.44
2023-02-05T11:35:56.044Z,99997.00
2023-02-05T11:38:29.064Z,99990.97
2023-02-05T11:41:02.832Z,99992.75
2023-02-05T11:43:37.640Z,99994.25
2023-02-05T11:46:09.794Z,99986.03
2023-02-05T11:48:59.120Z,99999.56
2023-02-05T11:51:46.957Z,99995.41
2023-02-05T11:54:21.028Z,99993.38
2023-02-05T11:57:19.991Z,99992.28
2023-02-05T11:59:57.264Z,99994.88
2023-02-05T12:02:29.870Z,99990.59
2023-02-05T12:05:20.175Z,99997.31
2023-02-05T12:08:08.884Z,99996.00
2023-02-05T12:10:54.823Z,100001.66
2023-02-05T12:13:40.352Z,100001.72
2023-02-05T12:16:28.770Z,99990.88
2023-02-05T12:19:21.964Z,99993.59
2023-02-05T12:22:10.253Z,99987.84
2023-02-05T12:24:47.774Z,99987.63
2023-02-05T12:27:20.435Z,99983.72
2023-02-05T12:30:10.184Z,99995.44
2023-02-05T12:32:39.900Z,99999.94
2023-02-05T12:35:13.473Z,99999.75
2023-02-05T12:37:51.426Z,99984.88
2023-02-05T12:40:33.168Z,100002.19
2023-02-05T12:43:39.747Z,100000.25
2023-02-05T12:46:39.771Z,100004.03
2023-02-05T12:49:30.301Z,100005.16
2023-02-05T12:52:42.208Z,100004.88
2023-02-05T12:55:17.733Z,100002.47
2023-02-05T12:57:49.944Z,99997.16
2023-02-05T13:00:32.510Z,99994.72
2023-02-05T13:03:12.584Z,100008.94
2023-02-05T13:06:03.346Z,100007.19
2023-02-05T13:08:41.617Z,100011.38
2023-02-05T13:11:26.708Z,100018.16
2023-02-05T13:14:01.528Z,100014.81
2023-02-05T13:17:02.975Z,100011.47
2023-02-05T13:19:35.711Z,100012.56
2023-02-05T13:22:12.257Z,100009.06
2023-02-05T13:24:47.040Z,100010.19
2023-02-05T13:27:36.702Z,100014.16
2023-02-05T13:30:05.126Z,100022.16
2023-02-05T13:32:33.360Z,100005.88
2023-02-05T13:35:00.435Z,99974.59
2023-02-05T13:37:42.144Z,99971.06
2023-02-05T13:40:16.124Z,99967.16
2023-02-05T13:42:48.458Z,100016.72
2023-02-05T13:45:55.366Z,100012.47
2023-02-05T13:48:40.715Z,100020.56
2023-02-05T13:51:16.562Z,100024.28
2023-02-05T13:54:14.294Z,100031.66
2023-02-05T13:57:04.132Z,100030.22
2023-02-05T13:59:38.874Z,100026.63
2023-02-05T14:02:39.360Z,100017.22
2023-02-05T14:05:07.494Z,100036.03
2023-02-05T14:07:47.551Z,100031.94
2023-02-05T14:10:35.990Z,100033.72
2023-02-05T14:13:31.082Z,100028.59
2023-02-05T14:15:58.537Z,100033.88
2023-02-05T14:18:40.478Z,100019.66
2023-02-05T14:21:32.038Z,100033.38
2023-02-05T14:24:01.414Z,100006.03
2023-02-05T14:26:46.628Z,100009.13
2023-02-05T14:29:37.893Z,100003.00
2023-02-05T14:32:04.756Z,100007.03
2023-02-05T14:34:34.379Z,100007.28
2023-02-05T14:37:01.174Z,100004.44
2023-02-05T14:39:33.272Z,100013.81
2023-02-05T14:42:03.297Z,100029.88
2023-02-05T14:44:40.376Z,99992.78
2023-02-05T14:47:23.984Z,100029.81
2023-02-05T14:49:51.878Z,100047.03
2023-02-05T14:52:40.712Z,100051.09
2023-02-05T14:55:17.346Z,100054.06
2023-02-05T14:58:00.874Z,100056.66
2023-02-05T15:00:36.719Z,100060.66
2023-02-05T15:03:12.582Z,100067.28
2023-02-05T15:05:45.248Z,100070.56
2023-02-05T15:08:36.431Z,100060.88
2023-02-05T15:11:19.002Z,100048.09
2023-02-05T15:14:19.578Z,100079.78
2023-02-05T15:17:07.554Z,100037.81
2023-02-05T15:19:39.889Z,100094.00
2023-02-05T15:22:25.980Z,100086.34
2023-02-05T15:24:54.516Z,100046.44
2023-02-05T15:27:26.356Z,100101.28
2023-02-05T15:29:57.173Z,100100.53
2023-02-05T15:32:28.770Z,100052.88
2023-02-05T15:35:12.836Z,100120.56
2023-02-05T15:37:49.396Z,100125.69
2023-02-05T15:40:20.400Z,100112.94
2023-02-05T15:42:52.121Z,100117.47
2023-02-05T15:45:39.092Z,100122.03
2023-02-05T15:48:09.019Z,100118.97
2023-02-05T15:50:43.418Z,100124.75
2023-02-05T15:53:27.660Z,100087.50
2023-02-05T15:55:54.725Z,100135.81
2023-02-05T15:58:25.924Z,100142.41
2023-02-05T16:00:54.029Z,100158.88
2023-02-05T16:03:27.273Z,100159.59
2023-02-05T16:05:54.192Z,100119.56
2023-02-05T16:08:22.022Z,100161.38
2023-02-05T16:10:57.371Z,100167.03
2023-02-05T16:13:27.081Z,100153.06
2023-02-05T16:16:19.257Z,100148.34
2023-02-05T16:18:55.309Z,100088.09
2023-02-05T16:21:30.124Z,100163.97
2023-02-05T16:24:02.914Z,100162.84
2023-02-05T16:26:40.796Z,100164.91
2023-02-05T16:29:25.768Z,100164.31
2023-02-05T16:32:21.432Z,100179.56
2023-02-05T16:34:48.282Z,100183.94
2023-02-05T16:37:18.547Z,100158.78
2023-02-05T16:39:54.155Z,100185.94
2023-02-05T16:42:26.621Z,100192.81
2023-02-05T16:45:23.895Z,100196.69
2023-02-05T16:48:26.353Z,100196.00
2023-02-05T16:50:53.178Z,100187.94
2023-02-05T16:53:26.779Z,100199.59
2023-02-05T16:56:11.338Z,100205.16
2023-02-05T16:58:48.433Z,100203.63
2023-02-05T17:01:22.664Z,100211.78
2023-02-05T17:03:51.024Z,100212.47
2023-02-05T17:06:18.784Z,100225.69
2023-02-05T17:08:51.314Z,100194.31
2023-02-05T17:11:40.728Z,100235.84
2023-02-05T17:14:13.308Z,100227.78
2023-02-05T17:16:41.688Z,100230.38
2023-02-05T17:19:40.896Z,100234.91
2023-02-05T17:22:13.498Z,100234.00
2023-02-05T17:24:48.609Z,100237.28
2023-02-05T17:27:25.058Z,100240.66
2023-02-05T17:29:51.969Z,100230.47
2023-02-05T17:32:20.751Z,100255.56
2023-02-05T17:34:47.844Z,100250.19
2023-02-05T17:37:15.009Z,100233.34
2023-02-05T17:39:41.739Z,100248.28
2023-02-05T17:42:21.333Z,100274.31
2023-02-05T17:44:48.181Z,100270.19
2023-02-05T17:47:14.877Z,100278.66
2023-02-05T17:49:42.143Z,100283.63
2023-02-05T17:52:11.366Z,100281.34
2023-02-05T17:54:38.544Z,100270.25
2023-02-05T17:57:20.791Z,100259.78
2023-02-05T17:59:48.231Z,100264.66
2023-02-05T18:02:15.496Z,100250.53
2023-02-05T18:04:42.921Z,100274.03
2023-02-05T18:07:19.475Z,100261.22
2023-02-05T18:09:46.345Z,100282.84
2023-02-05T18:12:12.968Z,100284.53
2023-02-05T18:14:39.617Z,100279.50
2023-02-05T18:17:06.368Z,100279.94
2023-02-05T18:19:33.258Z,100228.81
2023-02-05T18:22:00.028Z,100286.78
2023-02-05T18:24:27.538Z,100236.63
2023-02-05T18:26:54.210Z,100271.88
2023-02-05T18:29:21.008Z,100278.84
2023-02-05T18:31:48.870Z,100287.50
2023-02-05T18:34:15.626Z,100298.66
2023-02-05T18:36:42.234Z,100297.47
2023-02-05T18:39:09.105Z,100274.56
2023-02-05T18:41:35.764Z,100294.28
2023-02-05T18:44:02.555Z,100300.97
2023-02-05T18:46:29.535Z,100319.31
2023-02-05T18:48:56.435Z,100315.91
2023-02-05T18:51:23.538Z,100301.94
2023-02-05T18:53:50.802Z,100331.00
2023-02-05T18:56:23.238Z,100319.19
2023-02-05T18:58:52.966Z,100320.66
2023-02-05T19:01:20.447Z,100319.63
2023-02-05T19:03:47.721Z,100321.16
2023-02-05T19:06:17.100Z,100322.66
2023-02-05T19:08:44.195Z,100319.91
2023-02-05T19:11:13.436Z,100316.19
2023-02-05T19:13:51.679Z,100323.91
2023-02-05T19:16:18.429Z,100305.97
2023-02-05T19:18:46.210Z,100307.91
2023-02-05T19:21:15.540Z,100317.13
2023-02-05T19:23:42.883Z,100320.72
2023-02-05T19:26:15.199Z,100313.25
2023-02-05T19:28:44.122Z,100302.59
2023-02-05T19:31:13.941Z,100318.53
2023-02-05T19:33:41.235Z,100335.69
2023-02-05T19:36:09.538Z,100345.06
2023-02-05T19:38:38.147Z,100336.19
2023-02-05T19:41:17.370Z,100336.84
2023-02-05T19:43:49.473Z,100335.00
2023-02-05T19:46:22.356Z,100332.63
2023-02-05T19:48:49.223Z,100319.38
2023-02-05T19:51:19.118Z,100291.59
2023-02-05T19:53:46.788Z,100353.63
2023-02-05T19:56:24.416Z,100349.16
2023-02-05T19:58:54.124Z,100351.41
2023-02-05T20:01:24.033Z,100363.47
2023-02-05T20:03:53.231Z,100371.78
2023-02-05T20:06:22.133Z,100365.34
2023-02-05T20:08:49.303Z,100355.78
2023-02-05T20:11:17.189Z,100354.44
2023-02-05T20:13:44.959Z,100364.66
2023-02-05T20:16:17.667Z,100363.94
2023-02-05T20:18:44.858Z,100368.06
2023-02-05T20:21:17.170Z,100296.34
2023-02-05T20:23:44.328Z,100367.38
2023-02-05T20:26:11.646Z,100340.69
2023-02-05T20:28:40.514Z,100366.13
2023-02-05T20:31:07.160Z,100372.53
2023-02-05T20:33:33.868Z,100371.16
2023-02-05T20:36:08.824Z,100368.38
2023-02-05T20:38:35.571Z,100399.38
2023-02-05T20:41:17.779Z,100357.34
2023-02-05T20:43:44.609Z,100398.16
2023-02-05T20:46:11.226Z,100396.63
2023-02-05T20:48:38.268Z,100406.69
2023-02-05T20:51:07.819Z,100419.13
2023-02-05T20:53:34.916Z,100385.47
2023-02-05T20:56:07.025Z,100407.94
2023-02-05T20:58:34.320Z,100398.44
2023-02-05T21:01:15.778Z,100392.00
2023-02-05T21:03:45.065Z,100409.06
2023-02-05T21:06:12.427Z,100408.03
2023-02-05T21:08:40.992Z,100416.88
2023-02-05T21:11:07.964Z,100409.22
2023-02-05T21:13:35.495Z,100414.09
2023-02-05T21:16:03.503Z,100413.94
2023-02-05T21:18:30.674Z,100393.69
2023-02-05T21:21:09.173Z,100413.09
2023-02-05T21:23:36.569Z,100419.22
2023-02-05T21:26:04.455Z,100430.41
2023-02-05T21:28:32.203Z,100429.03
2023-02-05T21:31:07.643Z,100433.91
2023-02-05T21:33:35.918Z,100430.91
2023-02-05T21:36:04.406Z,100427.84
2023-02-05T21:38:34.710Z,100448.78
2023-02-05T21:41:07.312Z,100447.09
2023-02-05T21:43:34.276Z,100434.25
2023-02-05T21:46:02.944Z,100440.13
2023-02-05T21:48:29.800Z,100441.13
2023-02-05T21:50:56.425Z,100449.88
2023-02-05T21:53:23.223Z,100453.16
2023-02-05T21:55:49.847Z,100436.22
2023-02-05T21:58:16.458Z,100450.53
2023-02-05T22:00:43.045Z,100463.78
2023-02-05T22:03:10.213Z,100457.75
2023-02-05T22:05:36.815Z,100465.66
2023-02-05T22:08:03.830Z,100475.38
2023-02-05T22:10:30.446Z,100435.59
2023-02-05T22:12:57.140Z,100468.47
2023-02-05T22:15:23.771Z,100472.53
2023-02-05T22:17:50.480Z,100483.59
2023-02-05T22:20:17.249Z,100481.09
2023-02-05T22:22:44.038Z,100477.66
2023-02-05T22:25:10.671Z,100455.69
2023-02-05T22:27:37.399Z,100464.06
2023-02-05T22:30:04.251Z,100470.41
2023-02-05T22:32:30.982Z,100476.22
2023-02-05T22:34:57.587Z,100470.41
2023-02-05T22:37:24.260Z,100462.06
2023-02-05T22:39:50.946Z,100469.66
2023-02-05T22:42:19.027Z,100474.69
2023-02-05T22:44:45.749Z,100488.38
2023-02-05T22:47:12.519Z,100472.47
2023-02-05T22:49:39.206Z,100493.66
2023-02-05T22:52:05.882Z,100502.09
2023-02-05T22:54:32.512Z,100495.03
2023-02-05T22:56:59.177Z,100498.56
2023-02-05T22:59:25.809Z,100504.53
2023-02-05T23:01:52.528Z,100493.44
2023-02-05T23:04:19.142Z,100490.91
2023-02-05T23:06:45.872Z,100490.09
2023-02-05T23:09:16.079Z,100443.03
2023-02-05T23:11:44.246Z,100495.19
2023-02-05T23:14:12.807Z,100491.06
2023-02-05T23:16:42.284Z,100502.78
2023-02-05T23:19:12.824Z,100506.13
2023-02-05T23:21:41.619Z,100498.41
2023-02-05T23:24:08.916Z,100500.91
2023-02-05T23:26:39.486Z,100493.19
2023-02-05T23:29:06.730Z,100483.09
2023-02-05T23:31:33.583Z,100497.56
2023-02-05T23:34:00.406Z,100484.94
2023-02-05T23:36:27.126Z,100478.81
2023-02-05T23:38:53.850Z,100492.25
2023-02-05T23:41:20.630Z,100493.09
2023-02-05T23:43:47.238Z,100499.31
2023-02-05T23:46:14.030Z,100455.34
2023-02-05T23:48:40.671Z,100482.78
2023-02-05T23:51:07.480Z,100486.31
2023-02-05T23:53:34.114Z,100477.75
2023-02-05T23:56:00.931Z,100469.94
2023-02-05T23:58:27.515Z,100457.75
